sensor_id;sensor_type;location;lat;lon;timestamp;P1;durP1;ratioP1;P2;durP2;ratioP2
26191;SDS011;13935;55.672;37.764;2023-02-08T05:13:52;25.08;;;10.55;;
26191;SDS011;13935;55.672;37.764;2023-02-08T05:15:06;38.47;;;14.52;;
26191;SDS011;13935;55.672;37.764;2023-02-08T05:16:09;42.38;;;14.43;;
26191;SDS011;13935;55.672;37.764;2023-02-08T05:17:12;45.92;;;15.95;;
26191;SDS011;13935;55.672;37.764;2023-02-08T05:18:16;43.60;;;15.75;;
26191;SDS011;13935;55.672;37.764;2023-02-08T05:19:18;37.65;;;14.70;;
26191;SDS011;13935;55.672;37.764;2023-02-08T05:20:28;28.83;;;12.75;;
26191;SDS011;13935;55.672;37.764;2023-02-08T05:21:38;31.02;;;13.13;;
26191;SDS011;13935;55.672;37.764;2023-02-08T05:22:41;31.02;;;12.38;;
26191;SDS011;13935;55.672;37.764;2023-02-08T05:23:44;23.95;;;11.40;;
26191;SDS011;13935;55.672;37.764;2023-02-08T05:24:50;24.73;;;11.68;;
26191;SDS011;13935;55.672;37.764;2023-02-08T05:25:54;29.30;;;11.73;;
26191;SDS011;13935;55.672;37.764;2023-02-08T05:26:57;23.25;;;9.93;;
26191;SDS011;13935;55.672;37.764;2023-02-08T05:28:00;19.90;;;9.55;;
26191;SDS011;13935;55.672;37.764;2023-02-08T05:29:03;19.92;;;9.85;;
26191;SDS011;13935;55.672;37.764;2023-02-08T05:30:07;19.45;;;9.68;;
26191;SDS011;13935;55.672;37.764;2023-02-08T05:31:19;19.63;;;9.48;;
26191;SDS011;13935;55.672;37.764;2023-02-08T05:32:24;22.05;;;10.00;;
26191;SDS011;13935;55.672;37.764;2023-02-08T05:40:04;17.95;;;8.13;;
26191;SDS011;13935;55.672;37.764;2023-02-08T05:41:09;17.40;;;8.00;;
26191;SDS011;13935;55.672;37.764;2023-02-08T05:42:14;21.08;;;9.18;;
26191;SDS011;13935;55.672;37.764;2023-02-08T05:43:20;21.25;;;9.48;;
26191;SDS011;13935;55.672;37.764;2023-02-08T05:44:29;22.77;;;9.70;;
26191;SDS011;13935;55.672;37.764;2023-02-08T05:45:41;21.17;;;9.15;;
26191;SDS011;13935;55.672;37.764;2023-02-08T05:46:51;20.17;;;9.55;;
26191;SDS011;13935;55.672;37.764;2023-02-08T05:47:55;20.17;;;9.85;;
26191;SDS011;13935;55.672;37.764;2023-02-08T05:48:59;20.27;;;8.85;;
26191;SDS011;13935;55.672;37.764;2023-02-08T05:50:06;22.13;;;9.88;;
26191;SDS011;13935;55.672;37.764;2023-02-08T05:51:14;20.13;;;9.02;;
26191;SDS011;13935;55.672;37.764;2023-02-08T05:52:22;22.48;;;10.10;;
26191;SDS011;13935;55.672;37.764;2023-02-08T05:53:29;22.02;;;9.35;;
26191;SDS011;13935;55.672;37.764;2023-02-08T05:54:33;19.48;;;9.07;;
26191;SDS011;13935;55.672;37.764;2023-02-08T05:55:37;21.67;;;9.63;;
26191;SDS011;13935;55.672;37.764;2023-02-08T05:56:47;21.98;;;10.07;;
26191;SDS011;13935;55.672;37.764;2023-02-08T05:57:52;22.60;;;11.05;;
26191;SDS011;13935;55.672;37.764;2023-02-08T05:58:58;22.55;;;10.27;;
26191;SDS011;13935;55.672;37.764;2023-02-08T06:00:12;19.92;;;9.63;;
26191;SDS011;13935;55.672;37.764;2023-02-08T06:01:17;23.67;;;11.18;;
26191;SDS011;13935;55.672;37.764;2023-02-08T06:02:26;21.42;;;9.82;;
26191;SDS011;13935;55.672;37.764;2023-02-08T06:03:29;20.40;;;9.70;;
26191;SDS011;13935;55.672;37.764;2023-02-08T06:04:37;22.92;;;10.15;;
26191;SDS011;13935;55.672;37.764;2023-02-08T06:05:40;19.58;;;9.85;;
26191;SDS011;13935;55.672;37.764;2023-02-08T06:06:43;20.27;;;10.32;;
26191;SDS011;13935;55.672;37.764;2023-02-08T06:07:49;23.55;;;10.63;;
26191;SDS011;13935;55.672;37.764;2023-02-08T06:08:59;21.10;;;10.43;;
26191;SDS011;13935;55.672;37.764;2023-02-08T06:10:02;22.25;;;9.98;;
26191;SDS011;13935;55.672;37.764;2023-02-08T06:11:06;26.55;;;10.80;;
26191;SDS011;13935;55.672;37.764;2023-02-08T06:12:12;25.05;;;10.80;;
26191;SDS011;13935;55.672;37.764;2023-02-08T06:13:23;22.85;;;10.43;;
26191;SDS011;13935;55.672;37.764;2023-02-08T06:14:36;22.83;;;10.52;;
26191;SDS011;13935;55.672;37.764;2023-02-08T06:15:40;21.77;;;10.35;;
26191;SDS011;13935;55.672;37.764;2023-02-08T06:16:45;22.00;;;10.35;;
26191;SDS011;13935;55.672;37.764;2023-02-08T06:17:52;24.63;;;10.73;;
26191;SDS011;13935;55.672;37.764;2023-02-08T06:19:01;25.50;;;10.90;;
26191;SDS011;13935;55.672;37.764;2023-02-08T06:20:05;23.45;;;10.52;;
26191;SDS011;13935;55.672;37.764;2023-02-08T06:21:16;23.52;;;11.68;;
26191;SDS011;13935;55.672;37.764;2023-02-08T06:22:26;23.67;;;10.88;;
26191;SDS011;13935;55.672;37.764;2023-02-08T06:23:32;25.20;;;11.25;;
26191;SDS011;13935;55.672;37.764;2023-02-08T06:24:36;24.45;;;12.23;;
26191;SDS011;13935;55.672;37.764;2023-02-08T06:25:42;22.85;;;12.15;;
26191;SDS011;13935;55.672;37.764;2023-02-08T06:26:46;25.00;;;11.48;;
26191;SDS011;13935;55.672;37.764;2023-02-08T06:27:54;25.48;;;11.73;;
26191;SDS011;13935;55.672;37.764;2023-02-08T06:28:59;25.33;;;11.77;;
26191;SDS011;13935;55.672;37.764;2023-02-08T06:30:04;25.67;;;12.05;;
26191;SDS011;13935;55.672;37.764;2023-02-08T06:31:08;28.75;;;12.02;;
26191;SDS011;13935;55.672;37.764;2023-02-08T06:32:12;25.95;;;11.95;;
26191;SDS011;13935;55.672;37.764;2023-02-08T06:33:19;22.52;;;11.43;;
26191;SDS011;13935;55.672;37.764;2023-02-08T06:34:23;22.45;;;10.93;;
26191;SDS011;13935;55.672;37.764;2023-02-08T06:35:35;25.60;;;11.40;;
26191;SDS011;13935;55.672;37.764;2023-02-08T06:42:08;25.23;;;11.95;;
26191;SDS011;13935;55.672;37.764;2023-02-08T06:43:16;24.88;;;11.60;;
26191;SDS011;13935;55.672;37.764;2023-02-08T06:44:22;24.35;;;11.52;;
26191;SDS011;13935;55.672;37.764;2023-02-08T06:45:27;25.92;;;11.23;;
26191;SDS011;13935;55.672;37.764;2023-02-08T06:46:34;24.25;;;11.73;;
26191;SDS011;13935;55.672;37.764;2023-02-08T06:47:41;24.95;;;11.43;;
26191;SDS011;13935;55.672;37.764;2023-02-08T06:48:47;23.77;;;11.82;;
26191;SDS011;13935;55.672;37.764;2023-02-08T06:49:54;22.00;;;11.48;;
26191;SDS011;13935;55.672;37.764;2023-02-08T06:51:05;26.75;;;11.75;;
26191;SDS011;13935;55.672;37.764;2023-02-08T06:52:11;25.08;;;12.48;;
26191;SDS011;13935;55.672;37.764;2023-02-08T06:53:16;25.83;;;11.55;;
26191;SDS011;13935;55.672;37.764;2023-02-08T06:54:20;22.75;;;12.18;;
26191;SDS011;13935;55.672;37.764;2023-02-08T06:55:25;28.40;;;12.75;;
26191;SDS011;13935;55.672;37.764;2023-02-08T06:56:28;24.42;;;11.73;;
26191;SDS011;13935;55.672;37.764;2023-02-08T06:57:36;27.85;;;12.93;;
26191;SDS011;13935;55.672;37.764;2023-02-08T06:58:44;25.65;;;13.23;;
26191;SDS011;13935;55.672;37.764;2023-02-08T06:59:48;28.63;;;12.60;;
26191;SDS011;13935;55.672;37.764;2023-02-08T07:00:54;25.48;;;11.98;;
26191;SDS011;13935;55.672;37.764;2023-02-08T07:02:10;25.58;;;12.82;;
26191;SDS011;13935;55.672;37.764;2023-02-08T07:03:17;27.27;;;12.68;;
26191;SDS011;13935;55.672;37.764;2023-02-08T07:04:25;23.45;;;12.48;;
26191;SDS011;13935;55.672;37.764;2023-02-08T07:05:34;24.52;;;12.07;;
26191;SDS011;13935;55.672;37.764;2023-02-08T07:07:03;33.13;;;14.57;;
26191;SDS011;13935;55.672;37.764;2023-02-08T07:08:11;27.40;;;13.35;;
26191;SDS011;13935;55.672;37.764;2023-02-08T07:09:16;26.40;;;12.63;;
26191;SDS011;13935;55.672;37.764;2023-02-08T07:10:36;24.67;;;12.38;;
26191;SDS011;13935;55.672;37.764;2023-02-08T07:11:40;26.15;;;13.13;;
26191;SDS011;13935;55.672;37.764;2023-02-08T07:12:45;28.33;;;13.27;;
26191;SDS011;13935;55.672;37.764;2023-02-08T07:13:54;25.98;;;13.38;;
26191;SDS011;13935;55.672;37.764;2023-02-08T07:14:57;29.70;;;12.48;;
26191;SDS011;13935;55.672;37.764;2023-02-08T07:52:12;23.15;;;11.00;;
26191;SDS011;13935;55.672;37.764;2023-02-08T07:53:16;23.20;;;11.23;;
26191;SDS011;13935;55.672;37.764;2023-02-08T07:54:30;24.88;;;12.43;;
26191;SDS011;13935;55.672;37.764;2023-02-08T07:55:36;24.95;;;12.07;;
26191;SDS011;13935;55.672;37.764;2023-02-08T07:56:44;26.40;;;13.35;;
26191;SDS011;13935;55.672;37.764;2023-02-08T07:57:48;26.23;;;12.50;;
26191;SDS011;13935;55.672;37.764;2023-02-08T07:58:53;23.88;;;12.02;;
26191;SDS011;13935;55.672;37.764;2023-02-08T07:59:56;24.45;;;11.98;;
26191;SDS011;13935;55.672;37.764;2023-02-08T08:01:02;24.95;;;12.25;;
26191;SDS011;13935;55.672;37.764;2023-02-08T08:02:25;24.05;;;11.40;;
26191;SDS011;13935;55.672;37.764;2023-02-08T08:03:28;23.08;;;11.63;;
26191;SDS011;13935;55.672;37.764;2023-02-08T08:04:36;22.63;;;11.25;;
26191;SDS011;13935;55.672;37.764;2023-02-08T08:05:40;22.58;;;11.95;;
26191;SDS011;13935;55.672;37.764;2023-02-08T08:06:46;22.83;;;12.02;;
26191;SDS011;13935;55.672;37.764;2023-02-08T08:08:07;22.13;;;11.35;;
26191;SDS011;13935;55.672;37.764;2023-02-08T08:09:12;25.50;;;12.10;;
26191;SDS011;13935;55.672;37.764;2023-02-08T08:10:19;25.00;;;12.10;;
26191;SDS011;13935;55.672;37.764;2023-02-08T08:11:48;26.15;;;11.32;;
26191;SDS011;13935;55.672;37.764;2023-02-08T08:12:58;23.58;;;11.82;;
26191;SDS011;13935;55.672;37.764;2023-02-08T08:14:04;22.85;;;11.85;;
26191;SDS011;13935;55.672;37.764;2023-02-08T08:15:11;23.40;;;11.63;;
26191;SDS011;13935;55.672;37.764;2023-02-08T08:16:18;25.13;;;11.77;;
26191;SDS011;13935;55.672;37.764;2023-02-08T08:22:41;24.15;;;10.50;;
26191;SDS011;13935;55.672;37.764;2023-02-08T08:23:44;23.27;;;11.88;;
26191;SDS011;13935;55.672;37.764;2023-02-08T08:25:07;26.50;;;11.73;;
26191;SDS011;13935;55.672;37.764;2023-02-08T08:26:13;22.80;;;12.35;;
26191;SDS011;13935;55.672;37.764;2023-02-08T08:27:19;24.75;;;11.52;;
26191;SDS011;13935;55.672;37.764;2023-02-08T08:28:26;26.17;;;12.73;;
26191;SDS011;13935;55.672;37.764;2023-02-08T08:29:35;25.70;;;12.10;;
26191;SDS011;13935;55.672;37.764;2023-02-08T08:30:57;21.58;;;11.48;;
26191;SDS011;13935;55.672;37.764;2023-02-08T08:32:00;24.42;;;11.13;;
26191;SDS011;13935;55.672;37.764;2023-02-08T08:33:11;26.52;;;11.30;;
26191;SDS011;13935;55.672;37.764;2023-02-08T08:34:20;24.45;;;11.95;;
26191;SDS011;13935;55.672;37.764;2023-02-08T08:35:28;21.77;;;10.45;;
26191;SDS011;13935;55.672;37.764;2023-02-08T08:36:31;27.92;;;12.73;;
26191;SDS011;13935;55.672;37.764;2023-02-08T08:37:41;23.60;;;10.65;;
26191;SDS011;13935;55.672;37.764;2023-02-08T08:38:47;24.35;;;12.13;;
26191;SDS011;13935;55.672;37.764;2023-02-08T08:39:54;22.52;;;12.18;;
26191;SDS011;13935;55.672;37.764;2023-02-08T08:40:58;25.92;;;11.70;;
26191;SDS011;13935;55.672;37.764;2023-02-08T08:42:02;26.45;;;12.23;;
26191;SDS011;13935;55.672;37.764;2023-02-08T08:43:08;21.85;;;11.63;;
26191;SDS011;13935;55.672;37.764;2023-02-08T08:44:12;27.27;;;12.27;;
26191;SDS011;13935;55.672;37.764;2023-02-08T08:45:25;24.65;;;11.32;;
26191;SDS011;13935;55.672;37.764;2023-02-08T08:46:31;25.45;;;11.82;;
26191;SDS011;13935;55.672;37.764;2023-02-08T08:47:41;24.77;;;11.55;;
26191;SDS011;13935;55.672;37.764;2023-02-08T08:48:47;27.10;;;12.80;;
26191;SDS011;13935;55.672;37.764;2023-02-08T08:49:57;22.30;;;10.95;;
26191;SDS011;13935;55.672;37.764;2023-02-08T08:51:06;20.17;;;10.43;;
26191;SDS011;13935;55.672;37.764;2023-02-08T08:52:14;23.92;;;11.75;;
26191;SDS011;13935;55.672;37.764;2023-02-08T08:53:21;23.67;;;12.02;;
26191;SDS011;13935;55.672;37.764;2023-02-08T08:54:33;23.25;;;11.00;;
26191;SDS011;13935;55.672;37.764;2023-02-08T08:55:38;20.38;;;10.70;;
26191;SDS011;13935;55.672;37.764;2023-02-08T08:56:41;24.27;;;11.10;;
26191;SDS011;13935;55.672;37.764;2023-02-08T08:57:52;22.33;;;10.88;;
26191;SDS011;13935;55.672;37.764;2023-02-08T08:58:57;21.88;;;10.73;;
26191;SDS011;13935;55.672;37.764;2023-02-08T09:00:01;18.85;;;10.38;;
26191;SDS011;13935;55.672;37.764;2023-02-08T09:01:06;21.05;;;11.13;;
26191;SDS011;13935;55.672;37.764;2023-02-08T09:02:20;24.05;;;11.43;;
26191;SDS011;13935;55.672;37.764;2023-02-08T09:03:25;22.73;;;11.57;;
26191;SDS011;13935;55.672;37.764;2023-02-08T09:04:35;19.88;;;10.45;;
26191;SDS011;13935;55.672;37.764;2023-02-08T09:05:38;21.25;;;10.45;;
26191;SDS011;13935;55.672;37.764;2023-02-08T09:06:52;26.40;;;11.05;;
26191;SDS011;13935;55.672;37.764;2023-02-08T09:08:03;23.27;;;11.60;;
26191;SDS011;13935;55.672;37.764;2023-02-08T09:09:07;22.00;;;10.70;;
26191;SDS011;13935;55.672;37.764;2023-02-08T09:10:12;21.17;;;10.38;;
26191;SDS011;13935;55.672;37.764;2023-02-08T09:11:20;23.23;;;10.73;;
26191;SDS011;13935;55.672;37.764;2023-02-08T09:12:23;21.90;;;12.52;;
26191;SDS011;13935;55.672;37.764;2023-02-08T09:13:29;21.35;;;11.23;;
26191;SDS011;13935;55.672;37.764;2023-02-08T09:14:35;20.52;;;10.38;;
26191;SDS011;13935;55.672;37.764;2023-02-08T09:15:53;22.20;;;10.45;;
26191;SDS011;13935;55.672;37.764;2023-02-08T09:16:59;27.05;;;11.20;;
26191;SDS011;13935;55.672;37.764;2023-02-08T09:18:03;22.02;;;10.93;;
26191;SDS011;13935;55.672;37.764;2023-02-08T09:19:09;27.27;;;11.32;;
26191;SDS011;13935;55.672;37.764;2023-02-08T09:22:02;19.25;;;9.70;;
26191;SDS011;13935;55.672;37.764;2023-02-08T09:23:10;19.80;;;10.10;;
26191;SDS011;13935;55.672;37.764;2023-02-08T09:24:15;23.80;;;11.40;;
26191;SDS011;13935;55.672;37.764;2023-02-08T09:25:19;20.85;;;10.52;;
26191;SDS011;13935;55.672;37.764;2023-02-08T09:26:25;26.90;;;11.65;;
26191;SDS011;13935;55.672;37.764;2023-02-08T09:27:32;20.02;;;10.02;;
26191;SDS011;13935;55.672;37.764;2023-02-08T09:28:38;24.23;;;11.77;;
26191;SDS011;13935;55.672;37.764;2023-02-08T09:29:44;23.45;;;10.73;;
26191;SDS011;13935;55.672;37.764;2023-02-08T09:30:47;22.27;;;11.32;;
26191;SDS011;13935;55.672;37.764;2023-02-08T09:31:51;19.73;;;10.70;;
26191;SDS011;13935;55.672;37.764;2023-02-08T09:32:57;21.35;;;11.32;;
26191;SDS011;13935;55.672;37.764;2023-02-08T09:34:04;21.75;;;11.18;;
26191;SDS011;13935;55.672;37.764;2023-02-08T09:35:16;23.35;;;10.77;;
26191;SDS011;13935;55.672;37.764;2023-02-08T09:36:25;20.23;;;10.48;;
26191;SDS011;13935;55.672;37.764;2023-02-08T09:38:36;20.92;;;10.52;;
26191;SDS011;13935;55.672;37.764;2023-02-08T09:39:42;19.45;;;10.35;;
26191;SDS011;13935;55.672;37.764;2023-02-08T09:47:05;20.88;;;10.32;;
26191;SDS011;13935;55.672;37.764;2023-02-08T09:48:30;20.33;;;10.32;;
26191;SDS011;13935;55.672;37.764;2023-02-08T09:49:44;21.65;;;10.65;;
26191;SDS011;13935;55.672;37.764;2023-02-08T09:54:14;19.75;;;10.52;;
26191;SDS011;13935;55.672;37.764;2023-02-08T09:56:44;23.77;;;11.20;;
26191;SDS011;13935;55.672;37.764;2023-02-08T09:57:56;23.50;;;11.38;;
26191;SDS011;13935;55.672;37.764;2023-02-08T09:59:03;22.65;;;11.23;;
26191;SDS011;13935;55.672;37.764;2023-02-08T10:00:15;23.33;;;11.30;;
26191;SDS011;13935;55.672;37.764;2023-02-08T10:01:34;27.00;;;11.70;;
26191;SDS011;13935;55.672;37.764;2023-02-08T10:02:49;22.58;;;11.48;;
26191;SDS011;13935;55.672;37.764;2023-02-08T10:04:02;27.05;;;11.60;;
26191;SDS011;13935;55.672;37.764;2023-02-08T10:05:20;22.80;;;10.63;;
26191;SDS011;13935;55.672;37.764;2023-02-08T10:06:30;26.42;;;11.68;;
26191;SDS011;13935;55.672;37.764;2023-02-08T10:07:38;21.38;;;11.20;;
26191;SDS011;13935;55.672;37.764;2023-02-08T10:08:49;22.27;;;11.35;;
26191;SDS011;13935;55.672;37.764;2023-02-08T10:09:59;20.20;;;10.68;;
26191;SDS011;13935;55.672;37.764;2023-02-08T10:12:55;23.33;;;11.80;;
26191;SDS011;13935;55.672;37.764;2023-02-08T10:15:43;24.77;;;10.20;;
26191;SDS011;13935;55.672;37.764;2023-02-08T10:18:57;21.83;;;11.77;;
26191;SDS011;13935;55.672;37.764;2023-02-08T10:20:03;20.83;;;10.65;;
26191;SDS011;13935;55.672;37.764;2023-02-08T10:21:29;24.55;;;11.75;;
26191;SDS011;13935;55.672;37.764;2023-02-08T10:26:17;20.67;;;10.35;;
26191;SDS011;13935;55.672;37.764;2023-02-08T10:29:31;20.35;;;10.88;;
26191;SDS011;13935;55.672;37.764;2023-02-08T10:32:19;24.35;;;11.07;;
26191;SDS011;13935;55.672;37.764;2023-02-08T10:36:19;21.90;;;10.48;;
26191;SDS011;13935;55.672;37.764;2023-02-08T10:37:33;22.83;;;11.50;;
26191;SDS011;13935;55.672;37.764;2023-02-08T10:38:48;22.33;;;11.43;;
26191;SDS011;13935;55.672;37.764;2023-02-08T10:39:54;21.67;;;11.52;;
26191;SDS011;13935;55.672;37.764;2023-02-08T10:41:05;22.48;;;11.73;;
26191;SDS011;13935;55.672;37.764;2023-02-08T10:42:16;21.50;;;11.18;;
26191;SDS011;13935;55.672;37.764;2023-02-08T10:45:56;28.70;;;15.30;;
26191;SDS011;13935;55.672;37.764;2023-02-08T10:47:14;20.42;;;11.07;;
26191;SDS011;13935;55.672;37.764;2023-02-08T10:48:28;26.75;;;13.20;;
26191;SDS011;13935;55.672;37.764;2023-02-08T10:51:08;21.75;;;10.80;;
26191;SDS011;13935;55.672;37.764;2023-02-08T10:52:20;20.02;;;10.50;;
26191;SDS011;13935;55.672;37.764;2023-02-08T10:53:25;21.20;;;11.30;;
26191;SDS011;13935;55.672;37.764;2023-02-08T10:54:46;20.98;;;10.77;;
26191;SDS011;13935;55.672;37.764;2023-02-08T10:55:52;19.70;;;10.88;;
26191;SDS011;13935;55.672;37.764;2023-02-08T10:57:21;20.15;;;10.88;;
26191;SDS011;13935;55.672;37.764;2023-02-08T10:58:35;20.10;;;10.27;;
26191;SDS011;13935;55.672;37.764;2023-02-08T11:01:01;20.73;;;10.55;;
26191;SDS011;13935;55.672;37.764;2023-02-08T11:02:22;19.10;;;10.70;;
26191;SDS011;13935;55.672;37.764;2023-02-08T11:03:35;20.95;;;11.18;;
26191;SDS011;13935;55.672;37.764;2023-02-08T11:06:30;22.20;;;10.48;;
26191;SDS011;13935;55.672;37.764;2023-02-08T11:07:36;22.23;;;10.85;;
26191;SDS011;13935;55.672;37.764;2023-02-08T11:08:55;21.33;;;10.35;;
26191;SDS011;13935;55.672;37.764;2023-02-08T11:11:21;20.27;;;10.85;;
26191;SDS011;13935;55.672;37.764;2023-02-08T11:12:29;21.42;;;11.00;;
26191;SDS011;13935;55.672;37.764;2023-02-08T11:13:39;22.92;;;11.55;;
26191;SDS011;13935;55.672;37.764;2023-02-08T11:14:54;19.25;;;10.88;;
26191;SDS011;13935;55.672;37.764;2023-02-08T11:16:05;21.63;;;11.32;;
26191;SDS011;13935;55.672;37.764;2023-02-08T11:17:26;21.98;;;10.75;;
26191;SDS011;13935;55.672;37.764;2023-02-08T11:19:44;22.42;;;10.45;;
26191;SDS011;13935;55.672;37.764;2023-02-08T21:29:38;21.17;;;10.57;;
26191;SDS011;13935;55.672;37.764;2023-02-08T21:30:53;22.05;;;11.15;;
26191;SDS011;13935;55.672;37.764;2023-02-08T21:32:09;18.65;;;10.82;;
26191;SDS011;13935;55.672;37.764;2023-02-08T21:33:13;19.05;;;10.45;;
26191;SDS011;13935;55.672;37.764;2023-02-08T21:34:21;20.08;;;11.10;;
26191;SDS011;13935;55.672;37.764;2023-02-08T21:36:45;19.08;;;10.00;;
26191;SDS011;13935;55.672;37.764;2023-02-08T21:38:01;20.33;;;10.48;;
26191;SDS011;13935;55.672;37.764;2023-02-08T21:39:15;19.55;;;10.45;;
26191;SDS011;13935;55.672;37.764;2023-02-08T21:40:24;20.63;;;10.95;;
26191;SDS011;13935;55.672;37.764;2023-02-08T21:41:33;18.90;;;10.57;;
26191;SDS011;13935;55.672;37.764;2023-02-08T21:42:41;20.33;;;11.73;;
26191;SDS011;13935;55.672;37.764;2023-02-08T21:44:07;17.75;;;10.20;;
26191;SDS011;13935;55.672;37.764;2023-02-08T21:45:19;19.63;;;11.85;;
26191;SDS011;13935;55.672;37.764;2023-02-08T21:46:25;19.88;;;11.40;;
26191;SDS011;13935;55.672;37.764;2023-02-08T21:47:36;21.30;;;11.05;;
26191;SDS011;13935;55.672;37.764;2023-02-08T21:48:48;18.40;;;11.00;;
26191;SDS011;13935;55.672;37.764;2023-02-08T21:50:32;21.13;;;11.35;;
26191;SDS011;13935;55.672;37.764;2023-02-08T21:52:02;19.08;;;10.98;;
26191;SDS011;13935;55.672;37.764;2023-02-08T21:53:30;23.33;;;11.80;;
